createdAt,value
2023-12-11T00:00:07.963Z,8.30
2023-12-11T00:05:12.894Z,7.80
2023-12-11T00:10:17.778Z,7.90
2023-12-11T00:15:22.592Z,7.10
2023-12-11T00:20:26.022Z,7.30
2023-12-11T00:25:30.823Z,7.10
2023-12-11T00:30:35.317Z,8.80
2023-12-11T00:35:39.642Z,8.40
2023-12-11T00:40:44.797Z,7.10
2023-12-11T00:45:49.961Z,6.90
2023-12-11T00:50:54.908Z,8.30
2023-12-11T00:56:00.044Z,8.00
2023-12-11T01:01:04.095Z,8.00
2023-12-11T01:06:09.098Z,7.70
2023-12-11T01:11:13.307Z,9.80
2023-12-11T01:16:19.022Z,9.10
2023-12-11T01:21:23.969Z,7.50
2023-12-11T01:26:28.592Z,5.90
2023-12-11T01:31:33.876Z,12.60
2023-12-11T01:36:38.955Z,8.40
2023-12-11T01:41:43.264Z,11.00
2023-12-11T01:46:48.665Z,7.40
2023-12-11T01:51:54.401Z,6.70
2023-12-11T01:56:59.453Z,11.20
2023-12-11T02:02:04.747Z,7.60
2023-12-11T02:07:09.163Z,9.20
2023-12-11T02:12:14.544Z,6.80
2023-12-11T02:17:19.098Z,8.00
2023-12-11T02:22:23.774Z,6.40
2023-12-11T02:27:29.153Z,8.80
2023-12-11T02:32:34.008Z,9.60
2023-12-11T02:37:39.218Z,9.80
2023-12-11T02:42:51.864Z,7.80
2023-12-11T02:48:04.974Z,9.60
2023-12-11T02:53:09.839Z,8.80
2023-12-11T02:58:14.779Z,10.80
2023-12-11T03:03:19.093Z,9.50
2023-12-11T03:08:24.311Z,10.40
2023-12-11T03:13:28.146Z,7.80
2023-12-11T03:18:33.579Z,11.70
2023-12-11T03:23:39.489Z,8.30
2023-12-11T03:28:44.257Z,8.40
2023-12-11T03:33:49.821Z,9.20
2023-12-11T03:38:54.190Z,9.20
2023-12-11T03:43:58.872Z,9.90
2023-12-11T03:49:04.661Z,11.80
2023-12-11T03:54:09.003Z,7.90
2023-12-11T03:59:15.372Z,8.70
2023-12-11T04:04:20.029Z,9.80
2023-12-11T04:09:25.282Z,8.50
2023-12-11T04:14:30.272Z,7.90
2023-12-11T04:19:35.070Z,7.80
2023-12-11T04:24:39.698Z,9.90
2023-12-11T04:29:44.464Z,8.00
2023-12-11T04:34:48.881Z,6.30
2023-12-11T04:39:54.657Z,7.40
2023-12-11T04:44:59.513Z,9.20
2023-12-11T04:50:04.362Z,8.80
2023-12-11T04:55:09.164Z,6.80
2023-12-11T05:00:16.985Z,7.80
2023-12-11T05:05:22.111Z,7.20
2023-12-11T05:10:26.160Z,7.90
2023-12-11T05:15:30.551Z,9.40
2023-12-11T05:20:34.910Z,7.60
2023-12-11T05:25:39.677Z,5.30
2023-12-11T05:30:44.705Z,7.00
2023-12-11T05:35:50.129Z,10.40
2023-12-11T05:40:54.830Z,7.20
2023-12-11T05:45:59.081Z,4.80
2023-12-11T05:51:02.722Z,6.30
2023-12-11T05:56:07.786Z,5.10
2023-12-11T06:01:12.557Z,4.80
2023-12-11T06:06:17.863Z,9.30
2023-12-11T06:11:22.600Z,5.60
2023-12-11T06:16:28.452Z,5.90
2023-12-11T06:21:33.406Z,5.40
2023-12-11T06:26:38.415Z,6.20
2023-12-11T06:31:42.571Z,4.40
2023-12-11T06:36:47.813Z,4.40
2023-12-11T06:41:52.059Z,5.60
2023-12-11T06:46:57.091Z,5.50
2023-12-11T06:52:01.710Z,5.70
2023-12-11T06:57:06.605Z,5.00
2023-12-11T07:02:11.532Z,5.20
2023-12-11T07:07:16.042Z,5.10
2023-12-11T07:12:20.034Z,4.00
2023-12-11T07:17:24.547Z,5.50
2023-12-11T07:22:29.835Z,5.50
2023-12-11T07:27:35.979Z,4.60
2023-12-11T07:32:41.168Z,4.30
2023-12-11T07:37:46.452Z,4.60
2023-12-11T07:42:51.744Z,4.40
2023-12-11T07:47:56.693Z,3.80
2023-12-11T07:53:01.358Z,11.40
2023-12-11T07:58:06.089Z,9.20
2023-12-11T08:03:10.799Z,5.10
2023-12-11T08:08:15.204Z,6.30
2023-12-11T08:13:20.497Z,7.10
2023-12-11T08:18:26.084Z,5.10
2023-12-11T08:23:31.026Z,6.50
2023-12-11T08:28:36.227Z,6.20
2023-12-11T08:33:41.443Z,6.80
2023-12-11T08:38:46.705Z,6.00
2023-12-11T08:43:51.801Z,3.60
2023-12-11T08:48:55.731Z,5.40
2023-12-11T08:54:01.325Z,5.90
2023-12-11T08:59:05.390Z,4.90
2023-12-11T09:04:09.730Z,4.30
2023-12-11T09:09:15.220Z,5.90
2023-12-11T09:19:36.212Z,4.30
2023-12-11T09:24:49.100Z,4.40
2023-12-11T09:29:53.979Z,4.30
2023-12-11T09:34:58.945Z,6.70
2023-12-11T09:40:04.354Z,5.60
2023-12-11T09:45:10.049Z,5.20
2023-12-11T09:50:17.654Z,3.90
2023-12-11T09:55:21.165Z,4.80
2023-12-11T10:00:26.430Z,6.10
2023-12-11T10:05:30.772Z,2.80
2023-12-11T10:10:40.222Z,4.70
2023-12-11T10:15:46.390Z,4.60
2023-12-11T10:20:56.305Z,4.50
2023-12-11T10:26:09.358Z,4.00
2023-12-11T10:31:14.196Z,3.10
2023-12-11T10:36:18.757Z,4.20
2023-12-11T10:41:27.972Z,5.20
2023-12-11T10:46:33.463Z,3.40
2023-12-11T10:51:38.374Z,4.80
2023-12-11T10:56:47.917Z,3.80
2023-12-11T11:01:53.147Z,4.30
2023-12-11T11:07:10.167Z,3.50
2023-12-11T11:12:51.085Z,3.80
2023-12-11T11:18:05.085Z,6.40
2023-12-11T11:23:18.941Z,3.50
2023-12-11T11:28:44.563Z,3.50
2023-12-11T11:33:52.874Z,3.20
2023-12-11T11:39:03.990Z,3.60
2023-12-11T11:44:10.416Z,2.90
2023-12-11T11:49:39.137Z,3.30
2023-12-11T11:54:44.666Z,4.20
2023-12-11T11:59:52.038Z,3.20
2023-12-11T12:05:10.409Z,3.10
2023-12-11T12:10:19.254Z,3.50
2023-12-11T12:20:28.122Z,3.50
2023-12-11T12:25:33.927Z,3.40
2023-12-11T12:30:37.911Z,4.10
2023-12-11T12:35:45.656Z,4.10
2023-12-11T12:40:50.700Z,4.00
2023-12-11T12:46:02.309Z,5.40
2023-12-11T12:51:10.935Z,4.50
2023-12-11T12:56:19.158Z,3.30
2023-12-11T13:01:24.412Z,4.30
2023-12-11T13:06:28.805Z,3.70
2023-12-11T13:11:51.660Z,3.30
2023-12-11T13:16:57.418Z,3.90
2023-12-11T13:22:02.222Z,3.60
2023-12-11T13:27:07.867Z,3.30
2023-12-11T13:32:16.927Z,5.40
2023-12-11T13:37:21.975Z,4.70
2023-12-11T13:42:26.502Z,4.50
2023-12-11T13:47:33.016Z,4.40
2023-12-11T13:52:39.287Z,4.10
2023-12-11T13:57:45.095Z,4.60
2023-12-11T14:03:00.880Z,4.80
2023-12-11T14:08:08.774Z,3.10
2023-12-11T14:13:17.124Z,3.60
2023-12-11T14:18:24.295Z,8.20
2023-12-11T14:23:29.863Z,3.60
2023-12-11T14:28:35.691Z,4.00
2023-12-11T14:33:41.472Z,3.90
2023-12-11T14:38:48.531Z,3.60
2023-12-11T14:43:54.614Z,4.90
2023-12-11T14:49:02.513Z,4.70
2023-12-11T14:54:10.540Z,4.90
2023-12-11T14:59:15.863Z,5.90
2023-12-11T15:04:25.635Z,4.30
2023-12-11T15:09:39.302Z,5.90
2023-12-11T15:14:43.235Z,5.60
2023-12-11T15:19:48.169Z,4.90
2023-12-11T15:24:52.435Z,5.40
2023-12-11T15:29:57.107Z,5.10
2023-12-11T15:35:02.422Z,5.80
2023-12-11T15:40:09.206Z,5.70
2023-12-11T15:45:14.039Z,5.10
2023-12-11T15:50:19.286Z,6.70
2023-12-11T15:55:23.222Z,6.80
2023-12-11T16:00:28.811Z,11.30
2023-12-11T16:05:33.809Z,12.40
2023-12-11T16:10:42.997Z,7.80
2023-12-11T16:15:48.285Z,8.60
2023-12-11T16:20:53.039Z,6.60
2023-12-11T16:26:03.064Z,8.10
2023-12-11T16:31:09.955Z,9.30
2023-12-11T16:36:15.528Z,7.70
2023-12-11T16:41:29.997Z,6.90
2023-12-11T16:46:34.720Z,7.50
2023-12-11T16:51:40.103Z,7.80
2023-12-11T16:56:45.611Z,9.80
2023-12-11T17:01:50.751Z,9.70
2023-12-11T17:06:55.368Z,8.30
2023-12-11T17:12:00.254Z,7.80
2023-12-11T17:17:08.120Z,8.70
2023-12-11T17:22:13.640Z,8.00
2023-12-11T17:27:17.675Z,8.50
2023-12-11T17:32:23.170Z,9.10
2023-12-11T17:37:28.009Z,7.30
2023-12-11T17:42:32.399Z,6.70
2023-12-11T17:47:36.940Z,8.60
2023-12-11T17:52:43.089Z,20.40
2023-12-11T17:57:47.262Z,8.70
2023-12-11T18:02:53.870Z,7.60
2023-12-11T18:07:58.076Z,6.70
2023-12-11T18:13:02.731Z,6.40
2023-12-11T18:18:06.872Z,6.80
2023-12-11T18:23:10.819Z,7.10
2023-12-11T18:28:16.832Z,8.90
2023-12-11T18:33:20.798Z,7.60
2023-12-11T18:38:25.125Z,9.80
2023-12-11T18:43:29.657Z,8.60
2023-12-11T18:48:34.115Z,9.60
2023-12-11T18:53:39.711Z,9.80
2023-12-11T18:58:45.332Z,9.80
2023-12-11T19:03:51.684Z,10.50
2023-12-11T19:08:57.696Z,12.00
2023-12-11T19:14:03.110Z,10.80
2023-12-11T19:19:08.166Z,10.00
2023-12-11T19:24:13.489Z,9.60
2023-12-11T19:29:19.670Z,10.20
2023-12-11T19:34:23.861Z,8.00
2023-12-11T19:39:29.435Z,10.00
2023-12-11T19:44:36.339Z,10.00
2023-12-11T19:49:41.831Z,9.30
2023-12-11T19:54:47.084Z,10.60
2023-12-11T19:59:51.934Z,10.60
2023-12-11T20:04:55.874Z,9.20
2023-12-11T20:10:02.899Z,11.00
2023-12-11T20:15:07.463Z,10.60
2023-12-11T20:20:11.666Z,10.80
2023-12-11T20:25:15.409Z,9.10
2023-12-11T20:30:20.963Z,10.80
2023-12-11T20:35:24.373Z,9.60
2023-12-11T20:40:27.897Z,9.10
2023-12-11T20:45:31.480Z,12.20
2023-12-11T20:50:36.897Z,8.00
2023-12-11T20:55:46.836Z,10.40
2023-12-11T21:00:50.507Z,10.20
2023-12-11T21:05:54.126Z,10.90
2023-12-11T21:10:59.219Z,9.80
2023-12-11T21:16:05.776Z,10.40
2023-12-11T21:21:10.907Z,8.50
2023-12-11T21:26:21.498Z,8.70
2023-12-11T21:31:34.134Z,9.60
2023-12-11T21:36:42.650Z,8.10
2023-12-11T21:41:47.559Z,9.70
2023-12-11T21:46:52.690Z,9.30
2023-12-11T21:51:59.849Z,8.10
2023-12-11T21:57:04.531Z,8.00
2023-12-11T22:02:09.175Z,8.60
2023-12-11T22:07:17.414Z,6.20
2023-12-11T22:12:24.556Z,5.00
2023-12-11T22:17:30.313Z,6.00
2023-12-11T22:22:35.832Z,6.50
2023-12-11T22:27:42.002Z,7.60
2023-12-11T22:32:46.069Z,6.00
2023-12-11T22:37:51.009Z,7.10
2023-12-11T22:42:54.797Z,8.90
2023-12-11T22:47:59.335Z,7.80
2023-12-11T22:53:03.235Z,8.00
2023-12-11T22:58:14.004Z,7.50
2023-12-11T23:03:20.276Z,5.50
2023-12-11T23:08:25.870Z,8.70
2023-12-11T23:13:31.951Z,7.50
2023-12-11T23:18:35.968Z,9.90
2023-12-11T23:23:40.596Z,7.90
2023-12-11T23:28:45.050Z,10.60
2023-12-11T23:33:49.401Z,9.30
2023-12-11T23:38:53.831Z,9.80
2023-12-11T23:43:58.395Z,10.60
2023-12-11T23:49:03.231Z,11.80
2023-12-11T23:54:08.057Z,11.10
2023-12-11T23:59:12.239Z,10.30
